Time;durP1;ratioP1;P1;durP2;ratioP2;P2;SDS_P1;SDS_P2;PMS_P1;PMS_P2;Temp;Humidity;BMP_temperature;BMP_pressure;BME280_temperature;BME280_humidity;BME280_pressure;Samples;Min_cycle;Max_cycle;Signal;HPM_P1;HPM_P2
2021/04/08 00:00:43;;;;;;;14.00;3.23;;;1.10;99.90;;;2.06;100.00;98727.16;5043395;28;20448;-79
2021/04/08 00:03:10;;;;;;;4.10;2.93;;;1.10;99.90;;;1.96;100.00;98734.78;5044335;28;20445;-79
2021/04/08 00:05:38;;;;;;;3.50;2.60;;;1.10;99.90;;;1.90;100.00;98735.25;5057913;28;20465;-79
2021/04/08 00:08:07;;;;;;;3.97;3.00;;;1.00;99.90;;;1.97;100.00;98733.03;5049096;28;20465;-79
2021/04/08 00:10:34;;;;;;;7.30;3.20;;;1.10;99.90;;;1.99;100.00;98728.56;5048219;28;20461;-79
2021/04/08 00:13:02;;;;;;;3.90;3.00;;;1.10;99.90;;;2.00;100.00;98725.88;5051630;28;20473;-79
2021/04/08 00:15:30;;;;;;;7.00;3.53;;;1.10;99.90;;;2.03;100.00;98729.97;5041951;28;20462;-78
2021/04/08 00:17:57;;;;;;;10.73;2.90;;;1.30;99.90;;;1.93;100.00;98724.69;5048663;28;20496;-79
2021/04/08 00:20:25;;;;;;;13.13;3.00;;;1.00;99.90;;;1.87;100.00;98729.50;5054052;28;20469;-80
2021/04/08 00:22:53;;;;;;;9.67;3.13;;;1.00;99.90;;;1.91;100.00;98728.31;5052695;28;20461;-79
2021/04/08 00:25:21;;;;;;;3.80;2.47;;;1.10;99.90;;;1.87;100.00;98732.91;5050693;28;20456;-79
2021/04/08 00:27:49;;;;;;;6.80;2.97;;;1.10;99.90;;;1.86;100.00;98731.25;5048941;28;20827;-79
2021/04/08 00:30:17;;;;;;;6.17;2.80;;;1.10;99.90;;;1.78;100.00;98738.75;5056204;28;20933;-79
2021/04/08 00:32:45;;;;;;;4.10;2.77;;;1.00;99.90;;;1.79;100.00;98742.13;5050761;28;20957;-79
2021/04/08 00:35:13;;;;;;;9.63;3.00;;;1.00;99.90;;;1.67;100.00;98735.31;5054452;28;20472;-79
2021/04/08 00:37:40;;;;;;;16.23;3.60;;;0.80;99.90;;;1.73;100.00;98733.13;5053233;28;20523;-79
2021/04/08 00:40:11;;;;;;;5.50;2.83;;;0.90;99.90;;;1.73;100.00;98732.28;5059882;28;20537;-79
2021/04/08 00:42:41;;;;;;;4.93;2.70;;;0.90;99.90;;;1.63;100.00;98733.91;5048117;28;20930;-79
2021/04/08 00:45:10;;;;;;;4.43;3.30;;;0.80;99.90;;;1.69;100.00;98733.47;5049477;28;20456;-79
2021/04/08 00:47:38;;;;;;;8.73;3.80;;;0.90;99.90;;;1.72;100.00;98738.38;5042164;28;20579;-79
2021/04/08 00:50:08;;;;;;;7.60;2.83;;;0.90;99.90;;;1.69;100.00;98726.56;5049159;28;20836;-79
2021/04/08 00:52:37;;;;;;;7.10;2.77;;;0.90;99.90;;;1.71;100.00;98734.97;5056310;28;20460;-79
2021/04/08 00:55:06;;;;;;;5.03;2.80;;;0.90;99.90;;;1.68;100.00;98730.06;5051052;28;21240;-79
2021/04/08 00:57:33;;;;;;;9.97;3.37;;;0.90;99.90;;;1.68;100.00;98730.06;5050854;28;20480;-79
2021/04/08 01:00:06;;;;;;;5.97;3.10;;;0.80;99.90;;;1.60;100.00;98734.16;5053312;28;20468;-79
2021/04/08 01:02:34;;;;;;;6.17;3.47;;;0.70;99.90;;;1.52;100.00;98740.69;5060014;28;20459;-79
2021/04/08 01:05:03;;;;;;;6.90;3.43;;;0.60;99.90;;;1.49;100.00;98746.03;5052533;28;20472;-79
2021/04/08 01:07:33;;;;;;;4.70;2.87;;;0.60;99.90;;;1.54;100.00;98740.56;5058878;28;20460;-79
2021/04/08 01:10:01;;;;;;;4.87;3.03;;;0.70;99.90;;;1.59;100.00;98746.22;5052062;28;20461;-79
2021/04/08 01:12:28;;;;;;;5.33;3.57;;;0.80;99.90;;;1.60;100.00;98747.03;5056627;28;20483;-79
2021/04/08 01:14:57;;;;;;;7.00;3.70;;;0.70;99.90;;;1.57;100.00;98742.91;5056771;28;20494;-79
2021/04/08 01:17:35;;;;;;;12.30;3.50;;;0.80;99.90;;;1.57;100.00;98742.09;5062422;28;20549;-79
2021/04/08 01:20:50;;;;;;;10.10;3.97;;;0.80;99.90;;;1.53;100.00;98752.63;5055611;28;20977;-79
2021/04/08 01:24:30;;;;;;;8.23;3.13;;;0.70;99.90;;;1.53;100.00;98755.19;5049554;28;20490;-79
2021/04/08 01:27:38;;;;;;;4.07;3.13;;;0.70;99.90;;;1.39;100.00;98768.25;5056675;28;20498;-79
2021/04/08 01:30:46;;;;;;;4.30;2.97;;;0.50;99.90;;;1.42;100.00;98760.31;5044718;28;20456;-79
2021/04/08 01:33:20;;;;;;;4.00;3.13;;;0.60;99.90;;;1.41;100.00;98763.84;5053466;28;20449;-79
2021/04/08 01:35:51;;;;;;;5.27;3.43;;;0.70;99.90;;;1.32;100.00;98763.69;5051662;28;20508;-79
2021/04/08 01:38:26;;;;;;;6.30;3.50;;;0.50;99.90;;;1.31;100.00;98762.88;5054305;28;20499;-79
2021/04/08 01:40:56;;;;;;;13.20;4.27;;;0.50;99.90;;;1.23;100.00;98761.75;5050990;28;20496;-79
2021/04/08 01:43:29;;;;;;;6.00;3.17;;;0.40;99.90;;;1.19;100.00;98763.75;5050905;28;20484;-79
2021/04/08 01:46:00;;;;;;;9.70;3.80;;;0.30;99.90;;;1.25;100.00;98765.88;5054851;28;20485;-79
2021/04/08 01:48:30;;;;;;;8.50;4.13;;;0.40;99.90;;;1.25;100.00;98762.50;5053447;28;20460;-79
2021/04/08 01:51:02;;;;;;;7.17;3.50;;;0.50;99.90;;;1.23;100.00;98756.63;5054106;28;20519;-79
2021/04/08 01:53:31;;;;;;;5.50;4.07;;;0.40;99.90;;;1.23;100.00;98774.66;5054535;28;20444;-79
2021/04/08 01:56:02;;;;;;;12.70;4.70;;;0.50;99.90;;;1.22;100.00;98773.00;5047556;28;20465;-79
2021/04/08 01:58:31;;;;;;;6.00;3.70;;;0.40;99.90;;;1.15;100.00;98787.25;5053122;28;20489;-79
2021/04/08 02:01:01;;;;;;;4.87;3.50;;;0.30;99.90;;;0.99;100.00;98783.19;5056315;28;21010;-79
2021/04/08 02:03:31;;;;;;;6.73;4.27;;;0.10;99.90;;;0.98;100.00;98783.31;5055088;28;20547;-79
2021/04/08 02:06:01;;;;;;;6.57;4.33;;;0.10;99.90;;;0.98;100.00;98776.41;5045601;28;20466;-79
2021/04/08 02:08:32;;;;;;;6.97;4.17;;;0.20;99.90;;;0.95;100.00;98786.09;5051087;28;20460;-79
2021/04/08 02:11:01;;;;;;;9.50;4.67;;;0.20;99.90;;;0.84;100.00;98779.13;5051406;28;20801;-79
2021/04/08 02:13:30;;;;;;;6.57;4.30;;;0.00;99.90;;;0.80;100.00;98771.75;5051806;28;20465;-80
2021/04/08 02:16:01;;;;;;;10.43;4.43;;;0.00;99.90;;;0.83;100.00;98774.09;5047066;28;20883;-79
2021/04/08 02:18:30;;;;;;;7.60;4.83;;;0.00;99.90;;;0.84;100.00;98773.97;5054689;28;20492;-80
2021/04/08 02:21:00;;;;;;;5.40;3.97;;;0.00;99.90;;;0.75;100.00;98773.81;5048548;28;20577;-79
2021/04/08 02:23:33;;;;;;;5.20;3.30;;;-0.10;99.90;;;0.79;100.00;98772.66;5046091;28;20454;-79
2021/04/08 02:26:09;;;;;;;5.43;4.40;;;-0.10;99.90;;;0.80;100.00;98784.63;5053007;28;20455;-79
2021/04/08 02:28:39;;;;;;;7.80;4.60;;;-0.10;99.90;;;0.84;100.00;98783.44;5050490;28;20456;-79
2021/04/08 02:31:09;;;;;;;14.77;4.07;;;0.00;99.90;;;0.85;100.00;98782.53;5040816;28;20553;-79
2021/04/08 02:33:41;;;;;;;6.80;3.50;;;0.00;99.90;;;0.83;100.00;98781.81;5047009;28;21044;-79
2021/04/08 02:36:09;;;;;;;4.67;3.83;;;0.00;99.90;;;0.76;100.00;98785.75;5053131;28;20465;-79
2021/04/08 02:38:37;;;;;;;9.23;4.70;;;-0.10;99.90;;;0.71;100.00;98783.50;5055681;28;20894;-79
2021/04/08 02:41:07;;;;;;;6.90;4.20;;;-0.20;99.90;;;0.62;100.00;98788.47;5054120;28;20481;-79
2021/04/08 02:43:36;;;;;;;8.17;3.93;;;-0.30;99.90;;;0.47;100.00;98786.03;5047545;28;20499;-79
2021/04/08 02:46:05;;;;;;;8.70;4.97;;;-0.50;99.90;;;0.43;100.00;98786.34;5054607;28;20467;-79
2021/04/08 02:48:34;;;;;;;7.60;4.63;;;-0.50;99.90;;;0.39;100.00;98793.44;5054254;28;20461;-79
2021/04/08 02:51:09;;;;;;;5.37;3.30;;;-0.50;99.90;;;0.49;100.00;98802.16;5056282;28;20465;-79
2021/04/08 02:53:47;;;;;;;5.70;4.47;;;-0.40;99.90;;;0.39;100.00;98801.16;5054195;28;20461;-79
2021/04/08 02:56:28;;;;;;;10.00;5.37;;;-0.50;99.90;;;0.49;100.00;98807.31;5047098;28;20453;-79
2021/04/08 02:59:05;;;;;;;6.60;4.17;;;-0.40;99.90;;;0.55;100.00;98798.38;5041544;28;20497;-78
2021/04/08 03:01:37;;;;;;;8.23;4.40;;;-0.30;99.90;;;0.58;100.00;98794.75;5045412;28;20469;-80
2021/04/08 03:04:08;;;;;;;11.57;4.50;;;-0.30;99.90;;;0.55;100.00;98802.69;5049535;28;20550;-78
2021/04/08 03:06:37;;;;;;;11.63;4.50;;;-0.30;99.90;;;0.50;100.00;98797.84;5050655;28;20465;-79
2021/04/08 03:09:06;;;;;;;6.23;4.00;;;-0.40;99.90;;;0.52;100.00;98799.38;5057719;28;20947;-79
2021/04/08 03:11:36;;;;;;;6.90;4.27;;;-0.30;99.90;;;0.52;100.00;98802.91;5055426;28;20468;-79
2021/04/08 03:14:09;;;;;;;6.40;4.83;;;-0.30;99.90;;;0.54;100.00;98811.31;5051091;28;20972;-79
2021/04/08 03:16:41;;;;;;;10.37;5.10;;;-0.20;99.90;;;0.52;100.00;98813.19;5052753;28;20461;-80
2021/04/08 03:19:15;;;;;;;6.57;4.47;;;-0.30;99.90;;;0.42;100.00;98818.94;5057143;28;20498;-79
2021/04/08 03:21:46;;;;;;;13.83;4.73;;;-0.40;99.90;;;0.51;100.00;98825.22;5048904;28;20860;-79
2021/04/08 03:24:16;;;;;;;6.10;4.17;;;-0.30;99.90;;;0.41;100.00;98817.31;5049894;28;20458;-79
2021/04/08 03:26:46;;;;;;;6.80;3.97;;;-0.40;99.90;;;0.47;100.00;98823.78;5047247;28;20428;-80
2021/04/08 03:29:15;;;;;;;5.80;3.97;;;-0.40;99.90;;;0.47;100.00;98822.03;5051431;28;20980;-79
2021/04/08 03:31:45;;;;;;;6.90;4.13;;;-0.30;99.90;;;0.42;100.00;98812.97;5055925;28;21005;-79
2021/04/08 03:34:15;;;;;;;5.90;4.00;;;-0.30;99.90;;;0.44;100.00;98811.97;5055594;28;20463;-79
2021/04/08 03:36:43;;;;;;;7.27;4.07;;;-0.20;99.90;;;0.42;100.00;98812.97;5061574;28;20834;-79
2021/04/08 03:39:12;;;;;;;8.67;5.00;;;-0.30;99.90;;;0.40;100.00;98810.53;5042779;28;20558;-79
2021/04/08 03:41:43;;;;;;;6.97;4.50;;;-0.30;99.90;;;0.38;100.00;98814.94;5051111;28;20481;-79
2021/04/08 03:44:15;;;;;;;5.20;4.20;;;-0.40;99.90;;;0.40;100.00;98814.84;5048093;28;20452;-79
2021/04/08 03:46:47;;;;;;;6.73;4.60;;;-0.30;99.90;;;0.36;100.00;98824.50;5052788;28;20492;-79
2021/04/08 03:49:17;;;;;;;8.83;4.90;;;-0.40;99.90;;;0.39;100.00;98821.72;5047965;28;20485;-79
2021/04/08 03:51:46;;;;;;;21.53;4.67;;;-0.40;99.90;;;0.35;100.00;98833.16;5046345;28;20457;-79
2021/04/08 03:54:16;;;;;;;8.20;4.47;;;-0.40;99.90;;;0.40;100.00;98838.81;5051524;28;20490;-79
2021/04/08 03:56:48;;;;;;;9.83;5.60;;;-0.40;99.90;;;0.34;100.00;98841.81;5049782;28;20875;-79
2021/04/08 03:59:18;;;;;;;15.20;5.10;;;-0.50;99.90;;;0.30;100.00;98835.22;5053055;28;20982;-79
2021/04/08 04:01:48;;;;;;;10.00;5.40;;;-0.60;99.90;;;0.22;100.00;98842.63;5056566;28;20456;-79
2021/04/08 04:04:16;;;;;;;10.60;4.83;;;-0.70;99.90;;;0.17;100.00;98852.41;5052828;28;20462;-79
2021/04/08 04:06:49;;;;;;;6.50;5.00;;;-0.70;99.90;;;0.16;100.00;98840.47;5053202;28;20460;-79
2021/04/08 04:09:17;;;;;;;9.20;4.63;;;-0.70;99.90;;;0.22;100.00;98845.19;5054126;28;20498;-79
2021/04/08 04:11:49;;;;;;;8.93;5.33;;;-0.60;99.90;;;0.15;100.00;98843.13;5053447;28;20462;-79
2021/04/08 04:14:21;;;;;;;8.90;4.63;;;-0.80;99.90;;;0.02;100.00;98835.41;5058166;28;20439;-79
2021/04/08 04:16:52;;;;;;;7.33;5.07;;;-0.90;99.90;;;-0.03;100.00;98832.31;5048285;28;20460;-79
2021/04/08 04:19:20;;;;;;;9.47;5.30;;;-0.90;99.90;;;0.01;100.00;98828.63;5054789;28;20480;-79
2021/04/08 04:21:48;;;;;;;7.10;4.50;;;-0.90;99.90;;;0.08;100.00;98836.75;5049325;28;20480;-79
2021/04/08 04:24:15;;;;;;;10.97;5.27;;;-0.80;99.90;;;0.12;100.00;98833.88;5051444;28;20465;-79
2021/04/08 04:26:43;;;;;;;9.57;4.80;;;-0.70;99.90;;;0.07;100.00;98840.25;5056784;28;20456;-79
2021/04/08 04:29:12;;;;;;;9.70;5.47;;;-0.80;99.90;;;0.06;100.00;98846.31;5044709;28;20469;-79
2021/04/08 04:31:40;;;;;;;14.90;5.13;;;-0.80;99.90;;;0.07;100.00;98843.63;5052245;28;21035;-79
2021/04/08 04:34:08;;;;;;;5.53;4.10;;;-0.80;99.90;;;-0.01;100.00;98848.47;5045966;28;20926;-79
2021/04/08 04:36:36;;;;;;;8.73;5.10;;;-0.90;99.90;;;0.01;100.00;98838.91;5058978;28;20448;-79
2021/04/08 04:39:05;;;;;;;6.73;5.13;;;-0.80;99.90;;;-0.01;100.00;98843.34;5051781;28;20565;-79
2021/04/08 04:41:33;;;;;;;5.97;4.77;;;-0.90;99.90;;;0.06;100.00;98844.56;5049488;28;20458;-79
2021/04/08 04:44:00;;;;;;;13.17;6.03;;;-0.80;99.90;;;0.04;100.00;98848.97;5054019;28;20466;-79
2021/04/08 04:46:28;;;;;;;7.47;4.63;;;-0.80;99.90;;;0.08;100.00;98855.56;5055608;28;20453;-79
2021/04/08 04:48:56;;;;;;;7.47;4.67;;;-0.80;99.90;;;0.14;100.00;98855.16;5047452;28;20469;-79
2021/04/08 04:51:23;;;;;;;8.37;4.50;;;-0.70;99.90;;;0.11;100.00;98852.78;5054403;28;20472;-79
2021/04/08 04:53:51;;;;;;;7.30;4.83;;;-0.70;99.90;;;0.11;100.00;98855.34;5055556;28;21759;-79
2021/04/08 04:56:19;;;;;;;5.60;4.70;;;-0.80;99.90;;;0.04;100.00;98853.28;5056744;28;20460;-79
2021/04/08 04:58:46;;;;;;;6.47;4.30;;;-0.80;99.90;;;0.08;100.00;98850.44;5055944;28;20492;-79
2021/04/08 05:01:14;;;;;;;11.30;5.33;;;-0.80;99.90;;;0.11;100.00;98855.34;5051873;28;20489;-79
2021/04/08 05:03:42;;;;;;;6.37;4.67;;;-0.80;99.90;;;0.14;100.00;98851.78;5054507;28;20457;-79
2021/04/08 05:06:10;;;;;;;9.50;4.67;;;-0.60;99.90;;;0.15;100.00;98856.81;5059739;28;20464;-79
2021/04/08 05:08:37;;;;;;;7.70;5.60;;;-0.70;99.90;;;0.13;100.00;98857.84;5057445;28;20447;-80
2021/04/08 05:11:07;;;;;;;7.27;4.87;;;-0.70;99.90;;;0.10;100.00;98864.03;5059093;28;20537;-79
2021/04/08 05:13:34;;;;;;;7.37;5.10;;;-0.80;99.90;;;0.16;100.00;98861.03;5048568;28;20464;-79
2021/04/08 05:16:02;;;;;;;7.63;5.50;;;-0.70;99.90;;;0.15;100.00;98864.53;5048790;28;20470;-78
2021/04/08 05:18:29;;;;;;;13.40;7.07;;;-0.70;99.90;;;0.26;100.00;98871.53;5053067;28;20496;-79
2021/04/08 05:20:57;;;;;;;8.43;4.90;;;-0.50;99.90;;;0.18;100.00;98869.44;5057167;28;20461;-79
2021/04/08 05:23:25;;;;;;;6.60;4.77;;;-0.60;99.90;;;0.07;100.00;98873.69;5053019;28;20461;-78
2021/04/08 05:25:53;;;;;;;8.60;4.97;;;-0.80;99.90;;;0.12;100.00;98869.03;5048078;28;20463;-79
2021/04/08 05:28:21;;;;;;;16.03;6.37;;;-0.70;99.90;;;0.18;100.00;98873.78;5045277;28;20555;-79
2021/04/08 05:30:49;;;;;;;9.97;4.97;;;-0.70;99.90;;;0.21;100.00;98871.81;5048688;28;20968;-79
2021/04/08 05:33:16;;;;;;;9.77;5.10;;;-0.70;99.90;;;0.27;100.00;98875.75;5055292;28;20472;-79
2021/04/08 05:35:48;;;;;;;8.00;5.87;;;-0.60;99.90;;;0.21;100.00;98871.03;5048795;28;20483;-79
2021/04/08 05:38:16;;;;;;;8.20;5.80;;;-0.60;99.90;;;0.20;100.00;98875.34;5048636;28;20477;-79
2021/04/08 05:40:44;;;;;;;7.57;5.23;;;-0.60;99.90;;;0.28;100.00;98873.06;5050993;28;21027;-79
2021/04/08 05:43:15;;;;;;;10.73;5.20;;;-0.50;99.90;;;0.33;100.00;98875.34;5056357;28;20526;-79
2021/04/08 05:45:45;;;;;;;17.10;5.80;;;-0.50;99.90;;;0.26;100.00;98880.06;5054767;28;20999;-79
2021/04/08 05:48:17;;;;;;;12.60;4.73;;;-0.60;99.90;;;0.23;100.00;98885.41;5059419;28;20814;-82
2021/04/08 05:50:45;;;;;;;9.30;6.10;;;-0.60;99.90;;;0.31;100.00;98892.63;5051057;28;20467;-80
2021/04/08 05:53:13;;;;;;;8.40;5.03;;;-0.50;99.90;;;0.33;100.00;98890.75;5051875;28;20800;-79
2021/04/08 05:55:41;;;;;;;11.00;5.73;;;-0.50;99.90;;;0.42;100.00;98890.97;5051846;28;20874;-80
2021/04/08 05:58:08;;;;;;;6.87;5.27;;;-0.40;99.90;;;0.50;100.00;98886.13;5060774;28;20929;-79
2021/04/08 06:00:36;;;;;;;9.10;5.90;;;-0.30;99.90;;;0.52;100.00;98891.19;5057973;28;20787;-79
2021/04/08 06:03:05;;;;;;;8.43;5.50;;;-0.30;99.90;;;0.50;100.00;98899.00;5060153;28;20457;-79
2021/04/08 06:05:34;;;;;;;8.20;5.30;;;-0.30;99.90;;;0.43;100.00;98900.34;5055984;28;20534;-80
2021/04/08 06:08:02;;;;;;;9.07;5.13;;;-0.40;99.90;;;0.45;100.00;98910.53;5056409;28;20448;-80
2021/04/08 06:10:30;;;;;;;8.10;5.27;;;-0.40;99.90;;;0.43;100.00;98908.06;5057636;28;20987;-79
2021/04/08 06:12:58;;;;;;;8.83;5.83;;;-0.40;99.90;;;0.38;100.00;98910.09;5057581;28;20446;-80
2021/04/08 06:15:29;;;;;;;17.03;5.60;;;-0.50;99.90;;;0.38;100.00;98919.59;5053956;28;20441;-78
2021/04/08 06:17:57;;;;;;;18.73;10.53;;;-0.50;99.90;;;0.45;100.00;98916.47;5051761;28;20493;-79
2021/04/08 06:20:25;;;;;;;7.47;6.03;;;-0.40;99.90;;;0.53;100.00;98926.25;5052813;28;20457;-79
2021/04/08 06:23:04;;;;;;;10.00;5.80;;;-0.30;99.90;;;0.55;100.00;98923.59;5055354;28;20460;-80
2021/04/08 06:25:33;;;;;;;13.87;6.63;;;-0.20;99.90;;;0.57;100.00;98924.31;5047002;28;21020;-79
2021/04/08 06:28:01;;;;;;;10.87;6.40;;;-0.20;99.90;;;0.62;100.00;98922.25;5049359;28;20488;-79
2021/04/08 06:30:29;;;;;;;11.07;5.87;;;-0.20;99.90;;;0.66;100.00;98927.09;5050966;28;20451;-80
2021/04/08 06:32:57;;;;;;;12.90;5.87;;;-0.20;99.90;;;0.67;100.00;98930.47;5049058;28;20448;-80
2021/04/08 06:35:26;;;;;;;16.97;6.33;;;-0.20;99.90;;;0.70;100.00;98932.84;5059718;28;20436;-79
2021/04/08 06:37:54;;;;;;;9.97;6.60;;;-0.10;99.90;;;0.74;100.00;98926.56;5048058;28;20806;-79
2021/04/08 06:40:22;;;;;;;7.83;5.70;;;-0.10;99.90;;;0.77;100.00;98927.19;5055202;28;20898;-79
2021/04/08 06:42:54;;;;;;;16.20;7.30;;;-0.10;99.90;;;0.83;100.00;98928.53;5050083;28;20452;-79
2021/04/08 06:45:25;;;;;;;10.57;6.47;;;0.00;99.90;;;0.89;100.00;98935.84;5047428;28;20544;-80
2021/04/08 06:48:02;;;;;;;18.63;8.30;;;0.20;99.90;;;0.88;100.00;98929.03;5045836;28;20456;-79
2021/04/08 06:50:38;;;;;;;10.33;6.13;;;0.20;99.90;;;0.88;100.00;98939.31;5044149;28;20475;-80
2021/04/08 06:53:08;;;;;;;11.00;7.17;;;0.10;99.90;;;0.90;100.00;98937.50;5046728;28;20469;-79
2021/04/08 06:55:36;;;;;;;13.77;7.60;;;0.10;99.90;;;0.91;100.00;98933.97;5048905;28;20476;-79
2021/04/08 06:58:06;;;;;;;13.33;7.00;;;0.10;99.90;;;0.95;100.00;98935.41;5045318;28;20492;-79
2021/04/08 07:00:35;;;;;;;13.33;5.63;;;0.10;99.90;;;0.97;100.00;98938.72;5046755;28;20445;-79
2021/04/08 07:03:04;;;;;;;8.30;6.10;;;0.10;99.90;;;1.00;100.00;98939.34;5049214;28;20520;-80
2021/04/08 07:05:33;;;;;;;13.17;6.60;;;0.10;99.90;;;1.04;100.00;98939.94;5046749;28;20456;-79
2021/04/08 07:08:00;;;;;;;14.90;7.20;;;0.20;99.90;;;1.07;100.00;98939.72;5046091;28;20861;-80
2021/04/08 07:10:28;;;;;;;17.00;6.20;;;0.20;99.90;;;1.13;100.00;98944.44;5049665;28;20441;-79
2021/04/08 07:12:57;;;;;;;9.23;6.20;;;0.30;99.90;;;1.16;100.00;98941.66;5046755;28;20441;-79
2021/04/08 07:15:25;;;;;;;8.57;5.67;;;0.40;99.90;;;1.19;100.00;98941.44;5047491;28;20702;-80
2021/04/08 07:17:53;;;;;;;10.37;6.00;;;0.40;99.90;;;1.25;100.00;98951.31;5050492;28;20448;-79
2021/04/08 07:20:21;;;;;;;10.93;5.97;;;0.40;99.90;;;1.29;100.00;98945.03;5046007;28;20480;-79
2021/04/08 07:22:50;;;;;;;16.00;6.60;;;0.50;99.90;;;1.37;100.00;98950.47;5044873;28;20445;-79
2021/04/08 07:25:20;;;;;;;8.90;6.00;;;0.70;99.90;;;1.40;100.00;98955.41;5045428;28;20449;-79
2021/04/08 07:27:48;;;;;;;14.40;5.80;;;0.80;99.90;;;1.47;100.00;98946.31;5045952;28;20438;-80
2021/04/08 07:30:20;;;;;;;8.30;5.70;;;0.90;99.90;;;1.55;100.00;98956.09;5048306;28;20457;-79
2021/04/08 07:33:00;;;;;;;19.30;5.77;;;0.90;99.90;;;1.58;100.00;98953.31;5046091;28;20433;-79
2021/04/08 07:35:41;;;;;;;9.13;5.63;;;1.00;99.90;;;1.62;100.00;98959.88;5044299;28;20456;-79
2021/04/08 07:38:10;;;;;;;9.80;6.30;;;0.90;99.90;;;1.64;100.00;98955.44;5046927;28;20480;-79
2021/04/08 07:40:37;;;;;;;11.80;5.83;;;1.00;99.90;;;1.68;100.00;98956.03;5047672;28;20546;-79
2021/04/08 07:43:15;;;;;;;12.50;5.30;;;1.00;99.60;;;1.73;100.00;98959.97;5046156;28;20464;-79
2021/04/08 07:45:42;;;;;;;14.80;5.83;;;1.20;99.90;;;1.77;100.00;98963.94;5044765;28;20456;-79
2021/04/08 07:48:10;;;;;;;13.30;5.93;;;1.20;99.40;;;1.80;100.00;98962.91;5050226;28;20576;-79
2021/04/08 07:50:41;;;;;;;8.67;5.33;;;1.20;99.70;;;1.86;100.00;98960.72;5045920;28;20499;-79
2021/04/08 07:53:20;;;;;;;9.33;6.40;;;1.30;99.60;;;1.93;100.00;98958.53;5050521;28;20878;-79
2021/04/08 07:55:48;;;;;;;49.90;18.80;;;1.40;99.80;;;2.00;100.00;98954.56;5043297;28;20464;-80
2021/04/08 07:58:16;;;;;;;17.67;7.50;;;1.40;99.90;;;2.05;100.00;98956.81;5046680;28;20542;-79
2021/04/08 08:00:49;;;;;;;15.70;6.30;;;1.40;99.90;;;2.11;100.00;98954.63;5046412;28;20488;-79
2021/04/08 08:03:25;;;;;;;8.00;5.23;;;1.50;99.40;;;2.18;100.00;98955.81;5048133;28;20452;-79
2021/04/08 08:05:58;;;;;;;6.73;5.33;;;1.50;99.10;;;2.27;100.00;98964.63;5049187;28;20452;-80
2021/04/08 08:08:38;;;;;;;9.00;4.90;;;1.60;98.90;;;2.36;100.00;98957.03;5038984;28;20488;-79
2021/04/08 08:11:10;;;;;;;5.50;4.20;;;1.70;98.90;;;2.41;100.00;98962.69;5044822;28;20445;-80
2021/04/08 08:13:40;;;;;;;10.60;4.57;;;1.80;98.70;;;2.46;100.00;98959.78;5044328;28;20441;-79
2021/04/08 08:16:17;;;;;;;7.63;4.63;;;1.80;98.00;;;2.53;100.00;98966.13;5054667;28;20937;-79
2021/04/08 08:18:48;;;;;;;9.40;4.83;;;1.90;97.80;;;2.62;100.00;98960.28;5053105;28;20488;-79
2021/04/08 08:21:21;;;;;;;9.27;4.47;;;2.00;98.20;;;2.67;100.00;98958.19;5048682;28;20437;-79
2021/04/08 08:23:52;;;;;;;11.70;5.00;;;2.00;97.90;;;2.76;99.66;98954.06;5048744;28;20461;-80
2021/04/08 08:26:29;;;;;;;9.43;4.70;;;2.20;97.60;;;2.80;98.08;98952.91;5046807;28;20816;-80
2021/04/08 08:28:59;;;;;;;10.53;4.70;;;2.30;97.50;;;2.85;97.11;98956.78;5048002;28;20452;-80
2021/04/08 08:31:40;;;;;;;14.30;4.60;;;2.20;96.80;;;2.94;95.67;98950.94;5048260;28;20449;-79
2021/04/08 08:34:16;;;;;;;10.37;4.10;;;2.40;96.70;;;3.02;95.96;98952.91;5045594;28;20465;-79
2021/04/08 08:36:51;;;;;;;7.80;4.10;;;2.50;96.80;;;3.10;95.53;98955.72;5047094;28;20499;-80
2021/04/08 08:39:22;;;;;;;10.70;3.63;;;2.50;96.10;;;3.17;94.13;98956.09;5047295;28;20550;-79
2021/04/08 08:41:51;;;;;;;6.20;3.90;;;2.50;95.60;;;3.26;92.16;98955.38;5049444;28;20491;-80
2021/04/08 08:44:21;;;;;;;6.90;3.50;;;2.70;95.20;;;3.34;91.63;98953.84;5046530;28;20448;-80
2021/04/08 08:46:56;;;;;;;3.87;2.83;;;2.70;95.40;;;3.47;87.95;98944.19;5044999;28;20979;-80
2021/04/08 08:49:29;;;;;;;9.77;4.40;;;2.90;94.20;;;3.61;88.84;98950.06;5048677;28;20471;-79
2021/04/08 08:52:01;;;;;;;21.30;3.70;;;3.00;95.50;;;3.68;87.03;98951.22;5050527;28;20456;-80
2021/04/08 08:54:34;;;;;;;14.53;4.30;;;3.10;94.40;;;3.79;87.57;98943.41;5051681;28;20506;-80
2021/04/08 08:57:05;;;;;;;7.80;3.50;;;3.20;94.60;;;3.87;88.00;98947.03;5048425;28;20482;-80
2021/04/08 08:59:35;;;;;;;5.93;3.40;;;3.30;94.60;;;3.95;84.66;98939.50;5053491;28;20860;-79
2021/04/08 09:02:02;;;;;;;5.73;2.80;;;3.30;93.50;;;4.00;82.11;98939.09;5051859;28;20447;-80
2021/04/08 09:04:30;;;;;;;6.17;3.30;;;3.40;92.60;;;4.10;78.89;98952.09;5052288;28;20905;-80
2021/04/08 09:07:03;;;;;;;4.10;2.63;;;3.60;92.20;;;4.16;79.75;98949.88;5048323;28;20546;-79
2021/04/08 09:09:34;;;;;;;6.43;3.00;;;3.60;92.30;;;4.26;78.44;98943.00;5045098;28;20960;-86
2021/04/08 09:12:07;;;;;;;11.10;2.60;;;3.70;92.10;;;4.33;78.34;98945.91;5050170;28;20473;-79
2021/04/08 09:14:36;;;;;;;2.53;1.90;;;3.80;91.90;;;4.38;74.09;98951.50;5046776;28;20477;-79
2021/04/08 09:17:04;;;;;;;5.90;2.60;;;3.90;90.50;;;4.41;72.89;98948.66;5049814;28;20474;-79
2021/04/08 09:19:35;;;;;;;5.87;2.00;;;3.90;90.30;;;4.41;66.21;98949.50;5048585;28;21071;-80
2021/04/08 09:22:06;;;;;;;2.23;1.70;;;3.90;87.10;;;4.39;67.11;98941.03;5045007;28;20468;-80
2021/04/08 09:24:38;;;;;;;3.93;2.23;;;3.90;89.30;;;4.41;67.98;98936.53;5050763;28;20501;-80
2021/04/08 09:27:09;;;;;;;2.43;1.97;;;3.90;89.40;;;4.44;69.06;98944.06;5053096;28;20566;-80
2021/04/08 09:29:51;;;;;;;1.93;1.50;;;3.90;89.60;;;4.41;67.19;98941.72;5053104;28;20464;-80
2021/04/08 09:32:32;;;;;;;2.50;1.73;;;3.80;88.10;;;4.44;67.73;98946.66;5056827;28;20492;-79
2021/04/08 09:35:27;;;;;;;7.10;2.20;;;3.80;87.90;;;4.51;68.88;98931.47;5056407;28;20605;-80
2021/04/08 09:38:18;;;;;;;126.27;49.00;;;3.90;90.40;;;4.55;68.76;98943.19;5054562;28;20475;-80
2021/04/08 09:41:01;;;;;;;3.43;2.27;;;3.90;88.70;;;4.54;64.89;98947.56;5054341;28;20538;-80
2021/04/08 09:43:31;;;;;;;9.47;2.00;;;3.90;86.40;;;4.57;63.54;98941.28;5048321;28;20979;-81
2021/04/08 09:46:11;;;;;;;3.53;1.67;;;3.90;85.90;;;4.61;63.37;98942.69;5053473;28;20457;-81
2021/04/08 09:48:51;;;;;;;2.80;1.57;;;4.00;86.50;;;4.63;62.21;98934.78;5035666;28;20456;-80
2021/04/08 09:51:38;;;;;;;3.43;2.10;;;4.00;85.70;;;4.61;60.20;98947.03;5052616;28;20541;-80
2021/04/08 09:54:09;;;;;;;3.43;1.80;;;3.90;84.00;;;4.67;60.61;98938.75;5054258;28;20469;-79
2021/04/08 09:56:48;;;;;;;2.17;1.77;;;4.00;84.10;;;4.70;59.91;98936.72;5055045;28;20549;-80
2021/04/08 09:59:18;;;;;;;2.10;1.53;;;4.10;83.70;;;4.75;59.25;98942.38;5050516;28;20495;-80
2021/04/08 10:01:47;;;;;;;2.10;1.40;;;4.10;84.40;;;4.76;57.74;98935.38;5056083;28;20810;-80
2021/04/08 10:04:25;;;;;;;3.10;1.47;;;4.10;81.90;;;4.84;58.17;98938.16;5048952;28;20441;-80
2021/04/08 10:07:09;;;;;;;5.80;2.20;;;4.20;82.50;;;4.90;57.32;98927.28;5051766;28;20448;-80
2021/04/08 10:09:36;;;;;;;2.43;1.50;;;4.30;81.10;;;4.95;56.47;98930.31;5059883;28;20454;-80
2021/04/08 10:12:07;;;;;;;3.87;1.73;;;4.30;81.50;;;4.95;55.23;98932.91;5050346;28;20437;-80
2021/04/08 10:14:34;;;;;;;3.63;1.40;;;4.30;79.90;;;4.95;55.58;98925.13;5047357;28;20466;-80
2021/04/08 10:17:09;;;;;;;7.50;1.83;;;4.30;80.80;;;5.02;56.04;98927.09;5046979;28;20448;-80
2021/04/08 10:19:41;;;;;;;1.40;1.23;;;4.40;81.20;;;5.11;55.93;98919.44;5052296;28;20486;-80
2021/04/08 10:22:11;;;;;;;4.00;1.50;;;4.50;81.50;;;5.15;55.63;98921.66;5052951;28;21132;-80
2021/04/08 10:24:41;;;;;;;3.50;1.73;;;4.50;80.00;;;5.18;55.23;98915.38;5052090;28;20446;-80
2021/04/08 10:27:17;;;;;;;6.53;1.70;;;4.50;80.00;;;5.22;54.84;98916.78;5041771;28;20464;-80
2021/04/08 10:29:48;;;;;;;3.20;1.87;;;4.60;79.80;;;5.23;54.95;98914.06;5052933;28;20464;-79
2021/04/08 10:32:30;;;;;;;4.30;1.53;;;4.60;80.90;;;5.31;54.22;98916.00;5049259;28;21007;-80
2021/04/08 10:34:58;;;;;;;4.60;1.70;;;4.70;79.40;;;5.33;53.31;98914.91;5051614;28;20890;-79
2021/04/08 10:37:28;;;;;;;6.27;1.90;;;4.70;78.70;;;5.32;52.54;98913.25;5050415;28;20840;-80
2021/04/08 10:39:56;;;;;;;2.60;1.43;;;4.70;77.50;;;5.33;51.92;98899.34;5056954;28;20500;-80